sensor_id;sensor_type;location;lat;lon;timestamp;temperature;humidity
47338;DHT22;33069;51.970;5.892;2023-04-02T00:03:30;6.20;87.10
47338;DHT22;33069;51.970;5.892;2023-04-02T00:09:00;6.20;87.00
47338;DHT22;33069;51.970;5.892;2023-04-02T00:11:32;6.20;86.70
47338;DHT22;33069;51.970;5.892;2023-04-02T00:14:00;6.20;86.50
47338;DHT22;33069;51.970;5.892;2023-04-02T00:16:27;6.20;86.40
47338;DHT22;33069;51.970;5.892;2023-04-02T00:18:57;6.20;86.40
47338;DHT22;33069;51.970;5.892;2023-04-02T00:21:23;6.30;86.40
47338;DHT22;33069;51.970;5.892;2023-04-02T00:23:53;6.20;86.10
47338;DHT22;33069;51.970;5.892;2023-04-02T00:28:46;6.20;86.10
47338;DHT22;33069;51.970;5.892;2023-04-02T00:31:12;6.30;86.10
47338;DHT22;33069;51.970;5.892;2023-04-02T00:33:37;6.20;85.80
47338;DHT22;33069;51.970;5.892;2023-04-02T00:36:07;6.20;85.80
47338;DHT22;33069;51.970;5.892;2023-04-02T00:38:34;6.20;85.70
47338;DHT22;33069;51.970;5.892;2023-04-02T00:41:05;6.20;85.60
47338;DHT22;33069;51.970;5.892;2023-04-02T00:43:36;6.30;85.70
47338;DHT22;33069;51.970;5.892;2023-04-02T00:46:14;6.40;85.70
47338;DHT22;33069;51.970;5.892;2023-04-02T00:48:55;6.40;85.70
47338;DHT22;33069;51.970;5.892;2023-04-02T00:51:27;6.20;85.60
47338;DHT22;33069;51.970;5.892;2023-04-02T00:53:56;6.20;85.70
47338;DHT22;33069;51.970;5.892;2023-04-02T00:56:33;6.10;85.70
47338;DHT22;33069;51.970;5.892;2023-04-02T00:59:01;6.10;85.70
47338;DHT22;33069;51.970;5.892;2023-04-02T01:01:34;6.10;85.90
47338;DHT22;33069;51.970;5.892;2023-04-02T01:04:02;6.10;85.60
47338;DHT22;33069;51.970;5.892;2023-04-02T01:06:35;6.10;85.60
47338;DHT22;33069;51.970;5.892;2023-04-02T01:23:02;6.10;84.90
47338;DHT22;33069;51.970;5.892;2023-04-02T01:30:46;5.80;84.70
47338;DHT22;33069;51.970;5.892;2023-04-02T01:33:15;5.70;85.00
47338;DHT22;33069;51.970;5.892;2023-04-02T01:35:44;5.70;85.10
47338;DHT22;33069;51.970;5.892;2023-04-02T01:38:20;5.80;85.20
47338;DHT22;33069;51.970;5.892;2023-04-02T01:40:49;5.80;84.70
47338;DHT22;33069;51.970;5.892;2023-04-02T01:43:36;5.80;84.50
47338;DHT22;33069;51.970;5.892;2023-04-02T01:46:23;5.90;84.30
47338;DHT22;33069;51.970;5.892;2023-04-02T01:49:02;5.90;83.80
47338;DHT22;33069;51.970;5.892;2023-04-02T01:51:31;5.80;83.60
47338;DHT22;33069;51.970;5.892;2023-04-02T01:53:59;5.80;83.30
47338;DHT22;33069;51.970;5.892;2023-04-02T01:56:26;5.80;83.30
47338;DHT22;33069;51.970;5.892;2023-04-02T01:58:53;5.90;83.50
47338;DHT22;33069;51.970;5.892;2023-04-02T02:01:23;5.90;83.50
47338;DHT22;33069;51.970;5.892;2023-04-02T02:03:50;5.80;83.50
47338;DHT22;33069;51.970;5.892;2023-04-02T02:06:18;5.90;83.90
47338;DHT22;33069;51.970;5.892;2023-04-02T02:09:03;5.80;83.60
47338;DHT22;33069;51.970;5.892;2023-04-02T02:11:30;5.80;83.50
47338;DHT22;33069;51.970;5.892;2023-04-02T02:14:04;5.80;83.60
47338;DHT22;33069;51.970;5.892;2023-04-02T02:16:31;5.80;83.70
47338;DHT22;33069;51.970;5.892;2023-04-02T02:19:06;5.90;83.70
47338;DHT22;33069;51.970;5.892;2023-04-02T02:21:41;5.80;83.70
47338;DHT22;33069;51.970;5.892;2023-04-02T02:24:23;5.90;83.70
47338;DHT22;33069;51.970;5.892;2023-04-02T02:30:03;5.70;84.20
47338;DHT22;33069;51.970;5.892;2023-04-02T02:32:31;5.70;84.50
47338;DHT22;33069;51.970;5.892;2023-04-02T02:38:21;5.60;85.10
47338;DHT22;33069;51.970;5.892;2023-04-02T02:40:53;5.60;85.10
47338;DHT22;33069;51.970;5.892;2023-04-02T02:43:19;5.50;85.00
47338;DHT22;33069;51.970;5.892;2023-04-02T02:45:46;5.50;85.20
47338;DHT22;33069;51.970;5.892;2023-04-02T02:48:17;5.60;85.10
47338;DHT22;33069;51.970;5.892;2023-04-02T02:50:44;5.40;85.10
47338;DHT22;33069;51.970;5.892;2023-04-02T02:53:22;5.60;85.20
47338;DHT22;33069;51.970;5.892;2023-04-02T02:55:52;5.40;85.10
47338;DHT22;33069;51.970;5.892;2023-04-02T02:58:24;5.30;85.20
47338;DHT22;33069;51.970;5.892;2023-04-02T03:00:52;5.30;85.20
47338;DHT22;33069;51.970;5.892;2023-04-02T03:03:24;5.20;85.10
47338;DHT22;33069;51.970;5.892;2023-04-02T03:05:55;5.30;85.20
47338;DHT22;33069;51.970;5.892;2023-04-02T03:08:34;5.20;85.00
47338;DHT22;33069;51.970;5.892;2023-04-02T03:11:04;5.10;84.90
47338;DHT22;33069;51.970;5.892;2023-04-02T03:13:33;5.10;84.90
47338;DHT22;33069;51.970;5.892;2023-04-02T03:21:51;5.00;84.60
47338;DHT22;33069;51.970;5.892;2023-04-02T03:24:30;5.00;84.10
47338;DHT22;33069;51.970;5.892;2023-04-02T03:27:25;5.10;84.00
47338;DHT22;33069;51.970;5.892;2023-04-02T03:30:24;5.10;83.80
47338;DHT22;33069;51.970;5.892;2023-04-02T03:32:55;5.40;83.90
47338;DHT22;33069;51.970;5.892;2023-04-02T03:35:37;5.20;83.10
47338;DHT22;33069;51.970;5.892;2023-04-02T03:38:19;5.30;83.10
47338;DHT22;33069;51.970;5.892;2023-04-02T03:43:27;5.40;82.90
47338;DHT22;33069;51.970;5.892;2023-04-02T03:48:56;5.20;83.00
47338;DHT22;33069;51.970;5.892;2023-04-02T03:51:31;5.20;83.40
47338;DHT22;33069;51.970;5.892;2023-04-02T03:53:58;5.10;83.30
47338;DHT22;33069;51.970;5.892;2023-04-02T03:56:31;4.90;83.50
47338;DHT22;33069;51.970;5.892;2023-04-02T03:59:41;4.90;83.60
47338;DHT22;33069;51.970;5.892;2023-04-02T04:02:55;5.00;83.50
47338;DHT22;33069;51.970;5.892;2023-04-02T04:04:56;4.80;83.20
47338;DHT22;33069;51.970;5.892;2023-04-02T04:07:42;4.90;83.30
47338;DHT22;33069;51.970;5.892;2023-04-02T04:10:16;4.80;83.30
47338;DHT22;33069;51.970;5.892;2023-04-02T04:12:46;4.90;83.60
47338;DHT22;33069;51.970;5.892;2023-04-02T04:15:18;4.90;82.90
47338;DHT22;33069;51.970;5.892;2023-04-02T04:20:41;5.00;82.40
47338;DHT22;33069;51.970;5.892;2023-04-02T04:23:20;5.00;82.40
47338;DHT22;33069;51.970;5.892;2023-04-02T04:31:18;4.70;82.70
47338;DHT22;33069;51.970;5.892;2023-04-02T04:33:49;4.60;83.30
47338;DHT22;33069;51.970;5.892;2023-04-02T04:36:25;4.60;83.40
47338;DHT22;33069;51.970;5.892;2023-04-02T04:38:56;4.70;83.70
47338;DHT22;33069;51.970;5.892;2023-04-02T04:41:35;4.70;83.80
47338;DHT22;33069;51.970;5.892;2023-04-02T04:47:06;4.50;82.50
47338;DHT22;33069;51.970;5.892;2023-04-02T04:49:35;4.60;81.40
47338;DHT22;33069;51.970;5.892;2023-04-02T04:54:36;4.30;80.20
47338;DHT22;33069;51.970;5.892;2023-04-02T04:57:03;4.30;80.00
47338;DHT22;33069;51.970;5.892;2023-04-02T04:59:43;4.20;79.70
47338;DHT22;33069;51.970;5.892;2023-04-02T05:02:16;4.30;79.90
47338;DHT22;33069;51.970;5.892;2023-04-02T05:04:48;4.30;79.80
47338;DHT22;33069;51.970;5.892;2023-04-02T05:07:20;4.20;79.40
47338;DHT22;33069;51.970;5.892;2023-04-02T05:12:42;4.20;79.10
47338;DHT22;33069;51.970;5.892;2023-04-02T05:15:37;4.20;79.10
47338;DHT22;33069;51.970;5.892;2023-04-02T05:28:43;3.60;79.20
47338;DHT22;33069;51.970;5.892;2023-04-02T05:31:15;3.70;78.90
47338;DHT22;33069;51.970;5.892;2023-04-02T05:33:47;3.60;79.20
47338;DHT22;33069;51.970;5.892;2023-04-02T05:38:47;3.60;79.20
47338;DHT22;33069;51.970;5.892;2023-04-02T05:43:45;3.70;78.80
47338;DHT22;33069;51.970;5.892;2023-04-02T05:46:17;3.50;78.70
47338;DHT22;33069;51.970;5.892;2023-04-02T05:48:50;3.50;79.10
47338;DHT22;33069;51.970;5.892;2023-04-02T05:51:40;3.70;79.30
47338;DHT22;33069;51.970;5.892;2023-04-02T05:54:17;3.60;78.60
47338;DHT22;33069;51.970;5.892;2023-04-02T05:56:51;3.60;79.00
47338;DHT22;33069;51.970;5.892;2023-04-02T06:01:56;3.50;78.60
47338;DHT22;33069;51.970;5.892;2023-04-02T06:04:59;3.50;78.70
47338;DHT22;33069;51.970;5.892;2023-04-02T06:07:40;3.60;78.90
47338;DHT22;33069;51.970;5.892;2023-04-02T06:10:20;3.70;78.90
47338;DHT22;33069;51.970;5.892;2023-04-02T06:12:56;3.60;79.10
47338;DHT22;33069;51.970;5.892;2023-04-02T06:15:26;3.50;78.80
47338;DHT22;33069;51.970;5.892;2023-04-02T06:17:59;3.50;78.80
47338;DHT22;33069;51.970;5.892;2023-04-02T06:20:26;3.40;78.40
47338;DHT22;33069;51.970;5.892;2023-04-02T06:22:59;3.40;78.30
47338;DHT22;33069;51.970;5.892;2023-04-02T06:25:36;3.50;78.70
47338;DHT22;33069;51.970;5.892;2023-04-02T06:28:05;3.50;78.90
47338;DHT22;33069;51.970;5.892;2023-04-02T06:30:36;3.40;79.20
47338;DHT22;33069;51.970;5.892;2023-04-02T06:33:04;3.60;78.90
47338;DHT22;33069;51.970;5.892;2023-04-02T06:35:30;3.60;78.80
47338;DHT22;33069;51.970;5.892;2023-04-02T06:38:00;3.60;78.50
47338;DHT22;33069;51.970;5.892;2023-04-02T06:40:35;3.30;78.40
47338;DHT22;33069;51.970;5.892;2023-04-02T06:45:47;3.20;79.00
47338;DHT22;33069;51.970;5.892;2023-04-02T06:48:16;3.20;78.90
47338;DHT22;33069;51.970;5.892;2023-04-02T06:51:07;3.10;79.20
47338;DHT22;33069;51.970;5.892;2023-04-02T06:53:36;3.10;79.40
47338;DHT22;33069;51.970;5.892;2023-04-02T06:56:42;3.00;79.50
47338;DHT22;33069;51.970;5.892;2023-04-02T06:59:08;3.10;79.10
47338;DHT22;33069;51.970;5.892;2023-04-02T07:01:37;3.20;78.90
47338;DHT22;33069;51.970;5.892;2023-04-02T07:04:04;3.30;79.00
47338;DHT22;33069;51.970;5.892;2023-04-02T07:06:30;3.50;79.10
47338;DHT22;33069;51.970;5.892;2023-04-02T07:08:56;3.50;78.30
47338;DHT22;33069;51.970;5.892;2023-04-02T07:11:22;3.60;77.80
47338;DHT22;33069;51.970;5.892;2023-04-02T07:13:48;3.50;77.30
47338;DHT22;33069;51.970;5.892;2023-04-02T07:16:25;3.50;77.20
47338;DHT22;33069;51.970;5.892;2023-04-02T07:18:53;3.60;77.50
47338;DHT22;33069;51.970;5.892;2023-04-02T07:21:20;3.70;77.30
47338;DHT22;33069;51.970;5.892;2023-04-02T07:23:46;3.60;77.50
47338;DHT22;33069;51.970;5.892;2023-04-02T07:26:14;3.70;77.60
47338;DHT22;33069;51.970;5.892;2023-04-02T07:28:41;3.70;77.10
47338;DHT22;33069;51.970;5.892;2023-04-02T07:31:26;3.70;77.30
47338;DHT22;33069;51.970;5.892;2023-04-02T07:33:56;3.90;77.10
47338;DHT22;33069;51.970;5.892;2023-04-02T07:36:25;3.90;76.30
47338;DHT22;33069;51.970;5.892;2023-04-02T07:38:51;3.90;76.50
47338;DHT22;33069;51.970;5.892;2023-04-02T07:41:17;3.60;76.50
47338;DHT22;33069;51.970;5.892;2023-04-02T07:43:44;3.70;77.70
47338;DHT22;33069;51.970;5.892;2023-04-02T07:46:10;3.70;77.30
47338;DHT22;33069;51.970;5.892;2023-04-02T07:48:38;3.70;77.50
47338;DHT22;33069;51.970;5.892;2023-04-02T07:51:12;3.90;78.10
47338;DHT22;33069;51.970;5.892;2023-04-02T07:53:38;4.10;77.10
47338;DHT22;33069;51.970;5.892;2023-04-02T07:56:05;3.90;76.60
47338;DHT22;33069;51.970;5.892;2023-04-02T07:58:32;4.00;76.80
47338;DHT22;33069;51.970;5.892;2023-04-02T08:00:59;4.00;76.90
47338;DHT22;33069;51.970;5.892;2023-04-02T08:03:26;4.00;76.60
47338;DHT22;33069;51.970;5.892;2023-04-02T08:05:54;3.70;76.00
47338;DHT22;33069;51.970;5.892;2023-04-02T08:08:21;3.70;76.80
47338;DHT22;33069;51.970;5.892;2023-04-02T08:10:47;3.70;77.10
47338;DHT22;33069;51.970;5.892;2023-04-02T08:13:14;3.50;77.10
47338;DHT22;33069;51.970;5.892;2023-04-02T08:15:41;3.80;77.90
47338;DHT22;33069;51.970;5.892;2023-04-02T08:18:07;3.80;76.80
47338;DHT22;33069;51.970;5.892;2023-04-02T08:20:32;3.60;76.70
47338;DHT22;33069;51.970;5.892;2023-04-02T08:22:58;3.70;77.10
47338;DHT22;33069;51.970;5.892;2023-04-02T08:25:25;3.50;77.00
47338;DHT22;33069;51.970;5.892;2023-04-02T08:27:51;3.50;77.00
47338;DHT22;33069;51.970;5.892;2023-04-02T08:30:17;3.50;77.20
47338;DHT22;33069;51.970;5.892;2023-04-02T08:32:43;3.60;77.50
47338;DHT22;33069;51.970;5.892;2023-04-02T08:35:11;3.50;77.10
47338;DHT22;33069;51.970;5.892;2023-04-02T08:37:37;3.30;77.60
47338;DHT22;33069;51.970;5.892;2023-04-02T08:40:03;3.50;78.00
47338;DHT22;33069;51.970;5.892;2023-04-02T08:42:32;3.50;77.20
47338;DHT22;33069;51.970;5.892;2023-04-02T08:47:38;4.20;76.40
47338;DHT22;33069;51.970;5.892;2023-04-02T08:50:38;4.20;75.60
47338;DHT22;33069;51.970;5.892;2023-04-02T08:53:15;4.20;75.70
47338;DHT22;33069;51.970;5.892;2023-04-02T09:03:59;3.60;76.40
47338;DHT22;33069;51.970;5.892;2023-04-02T09:06:26;3.90;76.80
47338;DHT22;33069;51.970;5.892;2023-04-02T09:08:54;4.20;76.30
47338;DHT22;33069;51.970;5.892;2023-04-02T09:11:23;4.10;75.70
47338;DHT22;33069;51.970;5.892;2023-04-02T09:13:57;4.20;76.20
47338;DHT22;33069;51.970;5.892;2023-04-02T09:19:14;4.40;75.20
47338;DHT22;33069;51.970;5.892;2023-04-02T09:21:44;4.50;74.60
47338;DHT22;33069;51.970;5.892;2023-04-02T09:24:11;5.00;73.60
47338;DHT22;33069;51.970;5.892;2023-04-02T09:26:40;4.80;73.30
47338;DHT22;33069;51.970;5.892;2023-04-02T09:31:55;5.10;72.90
47338;DHT22;33069;51.970;5.892;2023-04-02T09:34:33;5.00;72.00
47338;DHT22;33069;51.970;5.892;2023-04-02T09:37:15;4.70;72.90
47338;DHT22;33069;51.970;5.892;2023-04-02T09:39:41;4.70;73.30
47338;DHT22;33069;51.970;5.892;2023-04-02T09:42:29;4.70;73.60
47338;DHT22;33069;51.970;5.892;2023-04-02T09:47:38;4.10;73.30
47338;DHT22;33069;51.970;5.892;2023-04-02T09:52:45;4.80;73.70
47338;DHT22;33069;51.970;5.892;2023-04-02T09:57:41;4.70;72.40
47338;DHT22;33069;51.970;5.892;2023-04-02T10:00:24;5.10;72.40
47338;DHT22;33069;51.970;5.892;2023-04-02T10:03:09;5.30;72.00
47338;DHT22;33069;51.970;5.892;2023-04-02T10:05:42;5.50;71.90
47338;DHT22;33069;51.970;5.892;2023-04-02T10:08:19;5.50;70.40
47338;DHT22;33069;51.970;5.892;2023-04-02T10:10:49;5.50;71.70
47338;DHT22;33069;51.970;5.892;2023-04-02T10:16:31;5.20;71.40
47338;DHT22;33069;51.970;5.892;2023-04-02T10:19:31;5.10;70.30
47338;DHT22;33069;51.970;5.892;2023-04-02T10:22:22;5.10;70.00
47338;DHT22;33069;51.970;5.892;2023-04-02T10:24:47;5.00;69.00
47338;DHT22;33069;51.970;5.892;2023-04-02T10:40:51;6.40;68.40
47338;DHT22;33069;51.970;5.892;2023-04-02T10:49:30;6.40;65.80
47338;DHT22;33069;51.970;5.892;2023-04-02T10:54:48;5.90;64.60
47338;DHT22;33069;51.970;5.892;2023-04-02T10:57:37;5.60;65.20
47338;DHT22;33069;51.970;5.892;2023-04-02T11:02:59;6.00;65.30
47338;DHT22;33069;51.970;5.892;2023-04-02T11:05:46;5.60;64.80
47338;DHT22;33069;51.970;5.892;2023-04-02T11:08:38;5.60;66.00
47338;DHT22;33069;51.970;5.892;2023-04-02T11:11:19;5.80;65.90
47338;DHT22;33069;51.970;5.892;2023-04-02T11:14:05;5.80;64.70
47338;DHT22;33069;51.970;5.892;2023-04-02T11:16:35;6.00;65.20
47338;DHT22;33069;51.970;5.892;2023-04-02T11:21:57;6.70;64.90
47338;DHT22;33069;51.970;5.892;2023-04-02T11:29:31;6.70;62.00
47338;DHT22;33069;51.970;5.892;2023-04-02T11:53:42;7.40;59.30
47338;DHT22;33069;51.970;5.892;2023-04-02T11:55:45;7.40;60.10
47338;DHT22;33069;51.970;5.892;2023-04-02T12:09:42;7.90;58.70
47338;DHT22;33069;51.970;5.892;2023-04-02T12:12:30;7.50;58.80
47338;DHT22;33069;51.970;5.892;2023-04-02T12:14:58;7.80;59.80
47338;DHT22;33069;51.970;5.892;2023-04-02T12:17:28;8.00;59.10
47338;DHT22;33069;51.970;5.892;2023-04-02T12:22:39;7.70;58.90
47338;DHT22;33069;51.970;5.892;2023-04-02T12:25:32;8.20;58.80
47338;DHT22;33069;51.970;5.892;2023-04-02T12:30:39;7.10;60.00
47338;DHT22;33069;51.970;5.892;2023-04-02T12:35:48;7.90;60.60
47338;DHT22;33069;51.970;5.892;2023-04-02T12:38:28;7.90;58.50
47338;DHT22;33069;51.970;5.892;2023-04-02T12:40:56;8.10;59.90
47338;DHT22;33069;51.970;5.892;2023-04-02T12:43:40;8.40;58.70
47338;DHT22;33069;51.970;5.892;2023-04-02T12:46:07;8.60;57.90
47338;DHT22;33069;51.970;5.892;2023-04-02T12:48:34;8.80;56.50
47338;DHT22;33069;51.970;5.892;2023-04-02T12:51:01;8.70;57.80
47338;DHT22;33069;51.970;5.892;2023-04-02T12:53:35;8.60;57.10
47338;DHT22;33069;51.970;5.892;2023-04-02T12:56:03;8.70;55.80
47338;DHT22;33069;51.970;5.892;2023-04-02T12:58:36;8.20;56.20
47338;DHT22;33069;51.970;5.892;2023-04-02T13:01:22;8.50;57.30
47338;DHT22;33069;51.970;5.892;2023-04-02T13:04:11;8.40;55.30
47338;DHT22;33069;51.970;5.892;2023-04-02T13:06:38;8.70;56.20
47338;DHT22;33069;51.970;5.892;2023-04-02T13:09:23;8.90;55.80
47338;DHT22;33069;51.970;5.892;2023-04-02T13:11:50;9.00;55.70
47338;DHT22;33069;51.970;5.892;2023-04-02T13:14:18;9.00;55.40
47338;DHT22;33069;51.970;5.892;2023-04-02T13:16:46;8.70;54.40
47338;DHT22;33069;51.970;5.892;2023-04-02T13:19:30;8.50;54.70
47338;DHT22;33069;51.970;5.892;2023-04-02T13:22:02;8.90;56.10
47338;DHT22;33069;51.970;5.892;2023-04-02T13:24:32;9.10;55.80
47338;DHT22;33069;51.970;5.892;2023-04-02T13:27:00;8.90;54.90
47338;DHT22;33069;51.970;5.892;2023-04-02T13:29:31;9.00;54.40
47338;DHT22;33069;51.970;5.892;2023-04-02T13:31:59;9.50;55.90
47338;DHT22;33069;51.970;5.892;2023-04-02T13:34:26;9.30;52.50
47338;DHT22;33069;51.970;5.892;2023-04-02T13:36:52;9.00;54.90
47338;DHT22;33069;51.970;5.892;2023-04-02T13:39:18;9.50;54.30
47338;DHT22;33069;51.970;5.892;2023-04-02T13:42:05;9.40;53.10
47338;DHT22;33069;51.970;5.892;2023-04-02T13:44:34;9.70;53.60
47338;DHT22;33069;51.970;5.892;2023-04-02T13:47:02;9.90;54.10
47338;DHT22;33069;51.970;5.892;2023-04-02T13:49:28;10.00;54.10
47338;DHT22;33069;51.970;5.892;2023-04-02T13:52:01;10.30;53.50
47338;DHT22;33069;51.970;5.892;2023-04-02T13:54:51;10.40;53.40
47338;DHT22;33069;51.970;5.892;2023-04-02T13:57:18;10.60;52.70
47338;DHT22;33069;51.970;5.892;2023-04-02T13:59:43;10.10;52.10
47338;DHT22;33069;51.970;5.892;2023-04-02T14:02:16;10.10;52.10
47338;DHT22;33069;51.970;5.892;2023-04-02T14:05:16;10.40;53.40
47338;DHT22;33069;51.970;5.892;2023-04-02T14:18:12;10.60;51.00
47338;DHT22;33069;51.970;5.892;2023-04-02T14:28:54;10.80;51.70
47338;DHT22;33069;51.970;5.892;2023-04-02T14:34:45;10.80;52.50
47338;DHT22;33069;51.970;5.892;2023-04-02T14:39:52;10.80;51.30
47338;DHT22;33069;51.970;5.892;2023-04-02T14:47:39;9.70;54.00
47338;DHT22;33069;51.970;5.892;2023-04-02T14:50:14;9.90;54.30
47338;DHT22;33069;51.970;5.892;2023-04-02T14:52:43;10.40;54.00
47338;DHT22;33069;51.970;5.892;2023-04-02T14:55:25;10.80;52.90
47338;DHT22;33069;51.970;5.892;2023-04-02T14:57:52;11.10;52.80
47338;DHT22;33069;51.970;5.892;2023-04-02T15:00:34;11.30;51.10
47338;DHT22;33069;51.970;5.892;2023-04-02T15:03:15;11.40;51.80
47338;DHT22;33069;51.970;5.892;2023-04-02T15:05:47;11.70;51.20
47338;DHT22;33069;51.970;5.892;2023-04-02T15:08:35;12.00;50.80
47338;DHT22;33069;51.970;5.892;2023-04-02T15:11:06;11.70;48.60
47338;DHT22;33069;51.970;5.892;2023-04-02T15:16:15;11.60;51.40
47338;DHT22;33069;51.970;5.892;2023-04-02T15:18:43;11.10;51.00
47338;DHT22;33069;51.970;5.892;2023-04-02T15:31:26;11.20;50.90
47338;DHT22;33069;51.970;5.892;2023-04-02T15:34:02;11.50;49.70
47338;DHT22;33069;51.970;5.892;2023-04-02T15:36:56;11.70;49.60
47338;DHT22;33069;51.970;5.892;2023-04-02T15:42:21;11.40;50.40
47338;DHT22;33069;51.970;5.892;2023-04-02T15:45:16;11.70;50.40
47338;DHT22;33069;51.970;5.892;2023-04-02T15:50:54;11.70;50.00
47338;DHT22;33069;51.970;5.892;2023-04-02T16:12:36;11.30;49.30
47338;DHT22;33069;51.970;5.892;2023-04-02T16:15:43;11.60;48.70
47338;DHT22;33069;51.970;5.892;2023-04-02T16:18:19;11.40;47.90
47338;DHT22;33069;51.970;5.892;2023-04-02T16:20:49;11.80;48.20
47338;DHT22;33069;51.970;5.892;2023-04-02T16:23:17;11.80;48.60
47338;DHT22;33069;51.970;5.892;2023-04-02T16:25:59;12.20;47.80
47338;DHT22;33069;51.970;5.892;2023-04-02T16:37:18;12.30;47.40
47338;DHT22;33069;51.970;5.892;2023-04-02T16:39:32;12.00;47.60
47338;DHT22;33069;51.970;5.892;2023-04-02T16:51:32;10.60;48.60
47338;DHT22;33069;51.970;5.892;2023-04-02T16:54:10;11.00;49.50
47338;DHT22;33069;51.970;5.892;2023-04-02T16:56:45;11.40;49.00
47338;DHT22;33069;51.970;5.892;2023-04-02T16:59:39;11.30;48.90
47338;DHT22;33069;51.970;5.892;2023-04-02T17:05:47;11.10;50.10
47338;DHT22;33069;51.970;5.892;2023-04-02T17:08:21;11.10;49.90
47338;DHT22;33069;51.970;5.892;2023-04-02T17:13:41;11.20;48.20
47338;DHT22;33069;51.970;5.892;2023-04-02T17:16:16;10.60;49.30
47338;DHT22;33069;51.970;5.892;2023-04-02T17:18:50;10.70;50.60
47338;DHT22;33069;51.970;5.892;2023-04-02T17:21:25;10.70;50.40
47338;DHT22;33069;51.970;5.892;2023-04-02T17:23:59;10.80;50.10
47338;DHT22;33069;51.970;5.892;2023-04-02T17:26:28;10.40;50.00
47338;DHT22;33069;51.970;5.892;2023-04-02T17:28:59;10.50;51.10
47338;DHT22;33069;51.970;5.892;2023-04-02T17:31:28;10.80;50.20
47338;DHT22;33069;51.970;5.892;2023-04-02T17:33:58;10.80;49.20
47338;DHT22;33069;51.970;5.892;2023-04-02T17:36:33;11.10;50.10
47338;DHT22;33069;51.970;5.892;2023-04-02T17:41:49;10.90;50.00
47338;DHT22;33069;51.970;5.892;2023-04-02T17:47:21;10.70;51.50
47338;DHT22;33069;51.970;5.892;2023-04-02T17:52:38;10.60;52.60
47338;DHT22;33069;51.970;5.892;2023-04-02T18:01:00;10.20;54.10
47338;DHT22;33069;51.970;5.892;2023-04-02T18:11:28;9.90;54.90
47338;DHT22;33069;51.970;5.892;2023-04-02T18:19:34;9.30;57.00
47338;DHT22;33069;51.970;5.892;2023-04-02T18:30:12;8.90;58.60
47338;DHT22;33069;51.970;5.892;2023-04-02T18:45:56;8.60;60.30
47338;DHT22;33069;51.970;5.892;2023-04-02T18:48:33;8.70;60.70
47338;DHT22;33069;51.970;5.892;2023-04-02T18:51:03;8.50;61.50
47338;DHT22;33069;51.970;5.892;2023-04-02T18:53:31;8.40;61.30
47338;DHT22;33069;51.970;5.892;2023-04-02T18:56:03;8.50;61.90
47338;DHT22;33069;51.970;5.892;2023-04-02T18:58:41;8.30;61.50
47338;DHT22;33069;51.970;5.892;2023-04-02T19:01:13;8.10;61.80
47338;DHT22;33069;51.970;5.892;2023-04-02T19:06:15;7.90;61.80
47338;DHT22;33069;51.970;5.892;2023-04-02T19:09:13;8.00;62.70
47338;DHT22;33069;51.970;5.892;2023-04-02T19:11:41;7.90;63.00
47338;DHT22;33069;51.970;5.892;2023-04-02T19:14:11;7.80;63.40
47338;DHT22;33069;51.970;5.892;2023-04-02T19:41:58;7.20;64.30
47338;DHT22;33069;51.970;5.892;2023-04-02T19:44:25;7.00;64.20
47338;DHT22;33069;51.970;5.892;2023-04-02T19:46:51;7.00;64.30
47338;DHT22;33069;51.970;5.892;2023-04-02T19:49:30;6.90;64.40
47338;DHT22;33069;51.970;5.892;2023-04-02T19:51:58;6.90;64.30
47338;DHT22;33069;51.970;5.892;2023-04-02T19:54:23;7.00;63.90
47338;DHT22;33069;51.970;5.892;2023-04-02T19:56:49;7.00;63.50
47338;DHT22;33069;51.970;5.892;2023-04-02T19:59:15;6.90;63.80
47338;DHT22;33069;51.970;5.892;2023-04-02T20:01:41;6.90;64.50
47338;DHT22;33069;51.970;5.892;2023-04-02T20:04:06;7.00;65.10
47338;DHT22;33069;51.970;5.892;2023-04-02T20:06:32;7.00;65.30
47338;DHT22;33069;51.970;5.892;2023-04-02T20:08:58;7.00;65.50
47338;DHT22;33069;51.970;5.892;2023-04-02T20:11:24;6.90;65.20
47338;DHT22;33069;51.970;5.892;2023-04-02T20:13:51;6.80;64.90
47338;DHT22;33069;51.970;5.892;2023-04-02T20:16:19;6.80;64.90
47338;DHT22;33069;51.970;5.892;2023-04-02T20:18:45;6.80;65.20
47338;DHT22;33069;51.970;5.892;2023-04-02T20:21:11;6.80;65.00
47338;DHT22;33069;51.970;5.892;2023-04-02T20:23:37;6.70;64.90
47338;DHT22;33069;51.970;5.892;2023-04-02T20:26:04;6.70;64.90
47338;DHT22;33069;51.970;5.892;2023-04-02T20:28:30;6.80;65.30
47338;DHT22;33069;51.970;5.892;2023-04-02T20:33:36;6.60;65.70
47338;DHT22;33069;51.970;5.892;2023-04-02T20:36:04;6.60;65.90
47338;DHT22;33069;51.970;5.892;2023-04-02T20:38:48;6.40;66.20
47338;DHT22;33069;51.970;5.892;2023-04-02T20:41:16;6.50;66.00
47338;DHT22;33069;51.970;5.892;2023-04-02T20:43:42;6.40;66.00
47338;DHT22;33069;51.970;5.892;2023-04-02T20:46:10;6.50;65.70
47338;DHT22;33069;51.970;5.892;2023-04-02T20:48:37;6.40;65.60
47338;DHT22;33069;51.970;5.892;2023-04-02T20:51:05;6.30;65.70
47338;DHT22;33069;51.970;5.892;2023-04-02T20:53:32;6.30;66.00
47338;DHT22;33069;51.970;5.892;2023-04-02T20:58:32;6.20;66.40
47338;DHT22;33069;51.970;5.892;2023-04-02T21:01:25;6.10;66.60
47338;DHT22;33069;51.970;5.892;2023-04-02T21:03:56;6.10;66.90
47338;DHT22;33069;51.970;5.892;2023-04-02T21:06:24;6.10;67.10
47338;DHT22;33069;51.970;5.892;2023-04-02T21:08:51;6.10;67.10
47338;DHT22;33069;51.970;5.892;2023-04-02T21:11:17;6.00;66.90
47338;DHT22;33069;51.970;5.892;2023-04-02T21:13:43;6.00;67.20
47338;DHT22;33069;51.970;5.892;2023-04-02T21:16:20;6.00;67.30
47338;DHT22;33069;51.970;5.892;2023-04-02T21:18:49;6.00;67.20
47338;DHT22;33069;51.970;5.892;2023-04-02T21:21:16;5.90;67.40
47338;DHT22;33069;51.970;5.892;2023-04-02T21:23:43;5.90;67.30
47338;DHT22;33069;51.970;5.892;2023-04-02T21:26:15;5.90;66.90
47338;DHT22;33069;51.970;5.892;2023-04-02T21:28:41;5.90;67.00
47338;DHT22;33069;51.970;5.892;2023-04-02T21:31:09;5.70;67.00
47338;DHT22;33069;51.970;5.892;2023-04-02T21:33:40;5.70;67.10
47338;DHT22;33069;51.970;5.892;2023-04-02T21:36:26;5.80;67.50
47338;DHT22;33069;51.970;5.892;2023-04-02T21:38:54;5.70;67.10
47338;DHT22;33069;51.970;5.892;2023-04-02T21:41:41;5.70;66.90
47338;DHT22;33069;51.970;5.892;2023-04-02T21:44:09;5.50;66.80
47338;DHT22;33069;51.970;5.892;2023-04-02T21:46:38;5.70;66.80
47338;DHT22;33069;51.970;5.892;2023-04-02T21:49:04;5.70;66.60
47338;DHT22;33069;51.970;5.892;2023-04-02T21:51:32;5.60;66.80
47338;DHT22;33069;51.970;5.892;2023-04-02T21:53:59;5.50;66.90
47338;DHT22;33069;51.970;5.892;2023-04-02T21:56:37;5.50;67.00
47338;DHT22;33069;51.970;5.892;2023-04-02T21:59:04;5.40;67.30
47338;DHT22;33069;51.970;5.892;2023-04-02T22:01:33;5.40;67.30
47338;DHT22;33069;51.970;5.892;2023-04-02T22:04:00;5.30;67.50
47338;DHT22;33069;51.970;5.892;2023-04-02T22:06:29;5.30;67.60
47338;DHT22;33069;51.970;5.892;2023-04-02T22:09:02;5.40;67.40
47338;DHT22;33069;51.970;5.892;2023-04-02T22:11:32;5.40;67.20
47338;DHT22;33069;51.970;5.892;2023-04-02T22:13:58;5.30;67.20
47338;DHT22;33069;51.970;5.892;2023-04-02T22:16:28;5.30;67.20